Time;durP1;ratioP1;P1;durP2;ratioP2;P2;SDS_P1;SDS_P2;PMS_P1;PMS_P2;Temp;Humidity;BMP_temperature;BMP_pressure;BME280_temperature;BME280_humidity;BME280_pressure;Samples;Min_cycle;Max_cycle;Signal;HPM_P1;HPM_P2
2021/05/10 00:00:25;;;;;;;5.90;2.60;;;18.40;97.10;;;;;;4971607;28;20403;-51
2021/05/10 00:02:50;;;;;;;6.63;2.67;;;18.40;97.50;;;;;;4971430;28;20411;-53
2021/05/10 00:05:16;;;;;;;5.13;2.60;;;18.40;96.70;;;;;;4970884;28;20411;-50
2021/05/10 00:07:42;;;;;;;5.67;2.57;;;18.50;96.70;;;;;;4971616;28;20824;-51
2021/05/10 00:10:08;;;;;;;4.83;2.10;;;18.50;96.50;;;;;;4970758;28;20395;-50
2021/05/10 00:12:34;;;;;;;5.50;2.70;;;18.60;96.50;;;;;;4971665;28;20454;-50
2021/05/10 00:14:59;;;;;;;5.72;2.40;;;18.50;98.70;;;;;;4970583;28;20471;-50
2021/05/10 00:17:25;;;;;;;8.90;2.50;;;18.40;97.50;;;;;;4971817;28;20592;-50
2021/05/10 00:19:51;;;;;;;7.23;2.70;;;18.50;96.80;;;;;;4971178;28;20399;-50
2021/05/10 00:22:16;;;;;;;6.43;2.63;;;18.70;96.00;;;;;;4971015;28;20411;-50
2021/05/10 00:24:42;;;;;;;5.95;2.50;;;18.80;95.60;;;;;;4971342;28;20388;-51
2021/05/10 00:27:08;;;;;;;5.10;2.70;;;19.00;94.60;;;;;;4970590;28;20836;-51
2021/05/10 00:29:33;;;;;;;6.40;2.60;;;19.10;94.10;;;;;;4971449;28;20411;-51
2021/05/10 00:32:02;;;;;;;6.30;2.78;;;19.10;94.70;;;;;;4953409;28;20400;-51
2021/05/10 00:34:27;;;;;;;5.90;2.60;;;19.10;94.60;;;;;;4971062;28;20391;-51
2021/05/10 00:36:54;;;;;;;5.20;2.40;;;19.10;96.00;;;;;;4970899;28;20376;-60
2021/05/10 00:39:19;;;;;;;7.38;2.50;;;19.10;95.30;;;;;;4970882;28;20935;-50
2021/05/10 00:41:45;;;;;;;4.93;2.13;;;19.10;95.20;;;;;;4971090;28;20503;-51
2021/05/10 00:44:10;;;;;;;7.00;2.65;;;19.10;94.40;;;;;;4970490;28;20558;-51
2021/05/10 00:46:37;;;;;;;6.00;3.07;;;19.20;94.50;;;;;;4971269;28;20474;-50
2021/05/10 00:49:04;;;;;;;5.60;2.40;;;18.80;94.40;;;;;;4970306;28;20476;-51
2021/05/10 00:51:30;;;;;;;5.72;2.25;;;19.10;96.50;;;;;;4971336;28;20387;-51
2021/05/10 00:53:56;;;;;;;7.70;2.83;;;18.90;97.20;;;;;;4973246;28;20466;-57
2021/05/10 00:56:22;;;;;;;7.10;2.50;;;18.70;98.30;;;;;;4975086;28;20396;-51
2021/05/10 00:58:48;;;;;;;6.10;3.00;;;18.60;99.00;;;;;;4975159;28;20408;-50
2021/05/10 01:01:13;;;;;;;6.05;2.80;;;18.40;99.80;;;;;;4974194;28;20415;-50
2021/05/10 01:03:40;;;;;;;5.60;2.30;;;18.20;99.90;;;;;;4957724;28;20463;-50
2021/05/10 01:06:07;;;;;;;5.60;2.78;;;18.00;99.90;;;;;;4973970;28;20384;-51
2021/05/10 01:08:33;;;;;;;6.30;2.90;;;17.80;99.90;;;;;;4974761;28;20463;-51
2021/05/10 01:10:59;;;;;;;8.65;3.28;;;17.80;99.90;;;;;;4973491;28;20800;-51
2021/05/10 01:13:24;;;;;;;7.30;2.93;;;17.70;99.90;;;;;;4973342;28;20883;-50
2021/05/10 01:15:51;;;;;;;7.50;3.20;;;17.40;99.90;;;;;;4974441;28;20380;-50
2021/05/10 01:18:19;;;;;;;6.20;3.30;;;17.30;99.90;;;;;;4973483;28;20459;-50
2021/05/10 01:20:47;;;;;;;5.60;2.92;;;17.20;99.90;;;;;;4974792;28;20427;-50
2021/05/10 01:23:12;;;;;;;5.10;2.90;;;17.10;99.90;;;;;;4956737;28;20403;-51
2021/05/10 01:25:38;;;;;;;6.80;3.47;;;17.00;99.90;;;;;;4974348;28;20392;-50
2021/05/10 01:28:04;;;;;;;5.70;2.80;;;17.00;99.90;;;;;;4973475;28;20451;-51
2021/05/10 01:30:39;;;;;;;6.00;3.00;;;16.80;99.90;;;;;;4974910;28;20407;-50
2021/05/10 01:33:06;;;;;;;6.25;3.10;;;16.70;99.90;;;;;;4973699;28;20384;-51
2021/05/10 01:35:36;;;;;;;9.70;3.58;;;16.70;99.90;;;;;;4974415;28;20388;-50
2021/05/10 01:38:05;;;;;;;7.60;3.83;;;16.60;99.90;;;;;;4974074;28;20387;-51
2021/05/10 01:40:31;;;;;;;7.50;4.00;;;16.50;99.90;;;;;;4973925;28;20389;-50
2021/05/10 01:42:58;;;;;;;6.80;4.00;;;16.50;99.90;;;;;;4973542;28;20479;-60
2021/05/10 01:45:24;;;;;;;10.70;3.83;;;16.40;99.90;;;;;;4974047;28;20388;-50
2021/05/10 01:48:00;;;;;;;7.88;4.07;;;16.30;99.90;;;;;;4974138;28;20395;-50
2021/05/10 01:50:27;;;;;;;7.80;3.78;;;16.40;99.90;;;;;;4974071;28;20906;-50
2021/05/10 01:52:52;;;;;;;8.23;4.28;;;16.40;99.90;;;;;;4973748;28;20402;-50
2021/05/10 01:55:20;;;;;;;7.53;3.33;;;16.40;99.90;;;;;;4973229;28;20559;-57
2021/05/10 01:57:51;;;;;;;7.70;3.80;;;16.50;99.90;;;;;;4973828;28;20410;-51
2021/05/10 02:00:21;;;;;;;8.23;3.90;;;16.70;99.90;;;;;;4972833;28;20384;-50
2021/05/10 02:02:47;;;;;;;7.07;3.47;;;16.80;99.90;;;;;;4973724;28;20483;-50
2021/05/10 02:05:18;;;;;;;6.93;3.47;;;16.80;99.90;;;;;;4972939;28;20483;-51
2021/05/10 02:07:52;;;;;;;9.47;4.10;;;16.70;99.90;;;;;;4973764;28;20483;-50
2021/05/10 02:10:32;;;;;;;7.30;3.70;;;16.50;99.90;;;;;;4973085;28;20499;-50
2021/05/10 02:13:06;;;;;;;7.03;3.80;;;16.30;99.90;;;;;;4972867;28;20395;-59
2021/05/10 02:15:37;;;;;;;6.80;3.65;;;16.20;99.90;;;;;;4973589;28;20479;-50
2021/05/10 02:18:04;;;;;;;8.23;3.80;;;16.10;99.90;;;;;;4972943;28;20407;-50
2021/05/10 02:20:31;;;;;;;8.05;4.07;;;16.00;99.90;;;;;;4973088;28;20416;-50
2021/05/10 02:23:03;;;;;;;6.40;3.63;;;16.10;99.90;;;;;;4972563;28;20461;-59
2021/05/10 02:25:31;;;;;;;11.10;3.50;;;16.10;99.90;;;;;;4972965;28;20392;-56
2021/05/10 02:27:57;;;;;;;8.07;4.03;;;16.10;99.90;;;;;;4972663;28;20447;-60
2021/05/10 02:30:25;;;;;;;8.23;3.70;;;16.20;99.90;;;;;;4973088;28;20782;-50
2021/05/10 02:32:52;;;;;;;7.90;3.70;;;16.20;99.90;;;;;;4973213;28;20408;-50
2021/05/10 02:35:19;;;;;;;8.00;3.90;;;16.20;99.90;;;;;;4972690;28;20882;-50
2021/05/10 02:37:45;;;;;;;6.47;3.70;;;16.10;99.90;;;;;;4973337;28;20408;-51
2021/05/10 02:40:12;;;;;;;7.80;4.30;;;16.10;99.90;;;;;;4972034;28;20419;-50
2021/05/10 02:42:38;;;;;;;7.63;3.90;;;16.00;99.90;;;;;;4972764;28;20466;-51
2021/05/10 02:45:05;;;;;;;6.40;3.33;;;15.90;99.90;;;;;;4972226;28;20872;-50
2021/05/10 02:47:31;;;;;;;6.57;3.53;;;16.00;99.90;;;;;;4972611;28;20416;-50
2021/05/10 02:49:57;;;;;;;7.38;3.75;;;16.00;99.90;;;;;;4955343;28;20396;-61
2021/05/10 02:52:24;;;;;;;7.27;3.90;;;16.00;99.90;;;;;;4972540;28;20443;-50
2021/05/10 02:54:50;;;;;;;7.00;3.40;;;16.00;99.90;;;;;;4972618;28;20495;-50
2021/05/10 02:57:16;;;;;;;6.47;3.88;;;15.90;99.90;;;;;;4972129;28;20541;-50
2021/05/10 02:59:43;;;;;;;7.35;3.70;;;15.80;99.90;;;;;;4972788;28;20818;-50
2021/05/10 03:02:09;;;;;;;7.33;3.70;;;15.70;99.90;;;;;;4971825;28;20492;-50
2021/05/10 03:04:35;;;;;;;6.60;3.80;;;15.60;99.90;;;;;;4972937;28;20479;-50
2021/05/10 03:07:00;;;;;;;7.40;4.40;;;15.50;99.90;;;;;;4971637;28;20400;-51
2021/05/10 03:09:26;;;;;;;7.70;3.90;;;15.50;99.90;;;;;;4972516;28;20384;-50
2021/05/10 03:11:52;;;;;;;8.05;4.40;;;15.40;99.90;;;;;;4972898;28;20388;-50
2021/05/10 03:14:17;;;;;;;8.20;4.50;;;15.40;99.90;;;;;;4971558;28;20704;-50
2021/05/10 03:16:43;;;;;;;7.97;4.60;;;15.40;99.90;;;;;;4971968;28;20902;-51
2021/05/10 03:19:10;;;;;;;6.45;4.10;;;15.30;99.90;;;;;;4954397;28;20491;-50
2021/05/10 03:21:37;;;;;;;10.30;4.43;;;15.40;99.90;;;;;;4972354;28;20530;-50
2021/05/10 03:24:04;;;;;;;9.48;4.80;;;15.40;99.90;;;;;;4971345;28;20483;-50
2021/05/10 03:26:30;;;;;;;8.95;4.32;;;15.40;99.90;;;;;;4972335;28;20411;-50
2021/05/10 03:28:56;;;;;;;8.13;4.85;;;15.50;99.90;;;;;;4971655;28;20523;-60
2021/05/10 03:31:22;;;;;;;9.00;4.17;;;15.50;99.90;;;;;;4971326;28;20394;-51
2021/05/10 03:33:47;;;;;;;7.67;4.17;;;15.50;99.90;;;;;;4972181;28;20415;-50
2021/05/10 03:36:13;;;;;;;8.95;4.10;;;15.40;99.90;;;;;;4971019;28;20404;-50
2021/05/10 03:38:38;;;;;;;7.20;4.23;;;15.50;99.90;;;;;;4971917;28;20384;-52
2021/05/10 03:41:04;;;;;;;7.63;4.07;;;15.60;99.90;;;;;;4971314;28;20417;-50
2021/05/10 03:43:29;;;;;;;8.63;3.88;;;15.60;99.90;;;;;;4954637;28;20911;-50
2021/05/10 03:45:55;;;;;;;7.50;3.80;;;15.60;99.90;;;;;;4972042;28;20417;-50
2021/05/10 03:48:21;;;;;;;7.70;3.50;;;15.40;99.90;;;;;;4952619;28;20477;-50
2021/05/10 03:50:46;;;;;;;7.17;3.50;;;15.50;99.90;;;;;;4952702;29;20972;-50
2021/05/10 03:53:12;;;;;;;6.57;3.50;;;15.60;99.90;;;;;;4951568;29;20390;-50
2021/05/10 03:55:39;;;;;;;7.13;3.78;;;15.80;99.90;;;;;;4952525;29;20386;-50
2021/05/10 03:58:05;;;;;;;8.77;3.65;;;16.00;99.90;;;;;;4951473;29;20408;-50
2021/05/10 04:00:31;;;;;;;6.93;3.63;;;16.20;99.90;;;;;;4952009;29;20402;-51
2021/05/10 04:02:59;;;;;;;6.13;3.00;;;16.30;99.90;;;;;;4952215;29;20396;-61
2021/05/10 04:08:11;;;;;;;6.70;3.28;;;16.50;99.90;;;;;;4952381;29;20390;-50
2021/05/10 04:15:57;;;;;;;6.80;3.10;;;16.90;99.90;;;;;;4951977;29;20680;-60
2021/05/10 04:18:23;;;;;;;7.47;3.67;;;18.60;99.90;;;;;;4951548;29;20445;-50
2021/05/10 04:20:49;;;;;;;7.05;3.28;;;16.80;99.90;;;;;;4951996;29;20441;-50
2021/05/10 04:23:16;;;;;;;6.15;2.70;;;16.80;99.90;;;;;;4951137;29;20382;-50
2021/05/10 04:25:46;;;;;;;7.22;3.25;;;16.80;99.90;;;;;;4951754;29;20777;-50
2021/05/10 04:28:13;;;;;;;6.55;2.70;;;16.80;99.90;;;;;;4949644;28;20493;-51
2021/05/10 04:30:40;;;;;;;8.43;3.10;;;16.80;99.90;;;;;;4952101;29;20441;-50
2021/05/10 04:33:05;;;;;;;8.00;2.80;;;16.00;99.90;;;;;;4950815;29;20862;-50
2021/05/10 04:35:33;;;;;;;6.60;3.00;;;16.70;99.90;;;;;;4951835;29;20473;-50
2021/05/10 04:38:07;;;;;;;5.50;2.80;;;16.60;99.90;;;;;;4951748;29;20397;-60
2021/05/10 04:40:32;;;;;;;6.85;2.90;;;16.70;99.90;;;;;;4951487;29;20997;-50
2021/05/10 04:42:58;;;;;;;7.75;2.60;;;16.80;99.90;;;;;;4951632;29;20465;-61
2021/05/10 04:45:23;;;;;;;6.30;3.07;;;17.00;99.90;;;;;;4951479;29;20473;-56
2021/05/10 04:47:49;;;;;;;8.02;3.20;;;17.10;99.90;;;;;;4951669;29;20786;-56
2021/05/10 04:50:15;;;;;;;12.27;3.63;;;17.20;99.90;;;;;;4950967;29;20846;-56
2021/05/10 04:52:41;;;;;;;7.90;3.40;;;17.40;99.90;;;;;;4951792;29;20398;-57
2021/05/10 04:55:09;;;;;;;8.70;3.33;;;17.50;99.90;;;;;;4950843;29;20961;-55
2021/05/10 04:57:34;;;;;;;8.15;2.75;;;17.50;99.90;;;;;;4951481;29;20470;-55
2021/05/10 05:00:00;;;;;;;7.50;3.20;;;17.50;99.90;;;;;;4951208;29;20519;-64
2021/05/10 05:02:26;;;;;;;8.27;3.50;;;17.70;99.90;;;;;;4951314;29;20886;-56
2021/05/10 05:04:52;;;;;;;6.40;2.92;;;18.00;99.90;;;;;;4951682;29;20397;-55
2021/05/10 05:07:18;;;;;;;8.65;3.10;;;18.30;99.90;;;;;;4950718;29;20390;-56
2021/05/10 05:09:43;;;;;;;5.82;2.80;;;18.40;99.90;;;;;;4951687;29;20593;-56
2021/05/10 05:12:09;;;;;;;10.23;3.03;;;18.60;99.90;;;;;;4951006;29;20481;-56
2021/05/10 05:14:35;;;;;;;5.70;3.00;;;18.70;99.90;;;;;;4951692;29;20394;-56
2021/05/10 05:17:01;;;;;;;5.72;2.80;;;18.90;99.90;;;;;;4950871;29;20382;-66
2021/05/10 05:19:26;;;;;;;7.00;2.92;;;18.90;99.90;;;;;;4951377;29;20572;-55
2021/05/10 05:21:52;;;;;;;8.70;2.73;;;18.90;99.90;;;;;;4951004;29;20421;-55
2021/05/10 05:24:18;;;;;;;6.90;2.77;;;18.70;99.90;;;;;;4950561;29;20854;-55
2021/05/10 05:26:44;;;;;;;6.15;2.70;;;18.60;99.90;;;;;;4951450;29;20453;-51
2021/05/10 05:29:10;;;;;;;6.13;2.93;;;18.60;99.90;;;;;;4950239;29;20814;-51
2021/05/10 05:31:36;;;;;;;7.82;2.65;;;18.60;99.90;;;;;;4951402;29;20406;-51
2021/05/10 05:34:02;;;;;;;7.65;2.75;;;18.60;99.90;;;;;;4950419;28;20902;-60
2021/05/10 05:36:28;;;;;;;8.00;4.18;;;18.50;99.90;;;;;;4951080;28;20386;-50
2021/05/10 05:38:54;;;;;;;10.50;3.50;;;18.60;99.90;;;;;;4952228;28;20408;-50
2021/05/10 05:41:19;;;;;;;9.20;3.30;;;18.80;99.90;;;;;;4956267;28;20417;-50
2021/05/10 05:43:45;;;;;;;8.77;3.27;;;18.80;99.90;;;;;;4955731;28;20394;-50
2021/05/10 05:46:14;;;;;;;10.80;3.13;;;18.90;99.90;;;;;;4954613;29;20386;-51
2021/05/10 05:48:41;;;;;;;7.90;3.40;;;19.10;99.90;;;;;;4961977;28;20510;-50
2021/05/10 05:51:10;;;;;;;9.23;3.08;;;19.20;99.90;;;;;;4954057;29;20827;-54
2021/05/10 05:53:36;;;;;;;7.32;3.42;;;19.40;99.90;;;;;;4939082;29;20421;-51
2021/05/10 05:56:02;;;;;;;7.65;3.22;;;19.30;99.90;;;;;;4961373;28;20397;-63
2021/05/10 05:58:27;;;;;;;7.50;3.38;;;19.30;99.90;;;;;;4967682;28;20404;-51
2021/05/10 06:00:53;;;;;;;7.70;3.33;;;19.30;99.90;;;;;;4973335;28;20825;-51
2021/05/10 06:03:20;;;;;;;8.60;3.00;;;19.30;99.90;;;;;;4954730;28;20405;-51
2021/05/10 06:05:46;;;;;;;7.22;3.20;;;19.50;99.90;;;;;;4973354;28;20395;-51
2021/05/10 06:08:14;;;;;;;11.10;3.50;;;19.20;99.90;;;;;;4965509;28;20397;-51
2021/05/10 06:10:40;;;;;;;9.10;3.10;;;18.90;99.90;;;;;;4955468;28;20392;-50
2021/05/10 06:13:06;;;;;;;6.90;3.40;;;18.50;99.90;;;;;;4972578;28;20539;-53
2021/05/10 06:15:32;;;;;;;9.15;3.80;;;18.50;99.90;;;;;;4971896;28;20465;-51
2021/05/10 06:17:57;;;;;;;7.57;3.70;;;18.60;99.90;;;;;;4973167;28;20393;-51
2021/05/10 06:20:24;;;;;;;6.72;3.50;;;18.80;99.90;;;;;;4972806;28;20376;-51
2021/05/10 06:22:50;;;;;;;6.60;3.30;;;18.90;99.90;;;;;;4972531;28;20930;-51
2021/05/10 06:25:16;;;;;;;9.10;3.83;;;19.10;99.90;;;;;;4971302;28;20424;-62
2021/05/10 06:27:43;;;;;;;7.50;3.50;;;19.20;99.90;;;;;;4956705;28;20932;-51
2021/05/10 06:30:10;;;;;;;5.70;3.03;;;19.40;99.90;;;;;;4951987;28;20873;-60
2021/05/10 06:32:38;;;;;;;8.20;4.10;;;19.60;99.90;;;;;;4953138;28;20866;-50
2021/05/10 06:35:04;;;;;;;10.27;3.83;;;20.00;99.90;;;;;;4955737;28;20484;-62
2021/05/10 06:37:30;;;;;;;12.60;3.80;;;20.20;99.90;;;;;;4972631;28;20403;-50
2021/05/10 06:39:57;;;;;;;7.03;3.13;;;20.60;99.90;;;;;;4966883;28;20402;-50
2021/05/10 06:42:24;;;;;;;7.90;3.40;;;21.00;99.90;;;;;;4952009;29;20520;-50
2021/05/10 06:44:50;;;;;;;7.35;3.30;;;21.50;99.90;;;;;;4953628;29;20390;-50
2021/05/10 06:47:16;;;;;;;9.63;3.50;;;21.70;99.90;;;;;;4965612;28;20392;-51
2021/05/10 06:49:42;;;;;;;7.13;3.58;;;21.80;99.90;;;;;;4972028;28;20444;-49
2021/05/10 06:52:07;;;;;;;7.30;3.70;;;22.30;99.90;;;;;;4971347;28;20400;-49
2021/05/10 06:54:33;;;;;;;5.90;3.08;;;22.60;97.90;;;;;;4972015;28;20381;-50
2021/05/10 06:56:59;;;;;;;6.80;3.07;;;23.00;97.40;;;;;;4972959;28;20487;-49
2021/05/10 06:59:25;;;;;;;8.80;3.10;;;23.20;96.30;;;;;;4972007;28;20479;-50
2021/05/10 07:01:50;;;;;;;7.20;2.90;;;23.40;95.30;;;;;;4966883;28;20462;-52
2021/05/10 07:04:16;;;;;;;7.03;3.10;;;23.70;94.40;;;;;;4969817;28;20400;-50
2021/05/10 07:06:43;;;;;;;6.00;2.67;;;23.40;96.30;;;;;;4972631;28;20392;-50
2021/05/10 07:09:09;;;;;;;8.23;3.20;;;23.20;95.50;;;;;;4970102;28;20400;-50
2021/05/10 07:11:34;;;;;;;6.45;2.88;;;23.10;95.90;;;;;;4953395;28;20400;-50
2021/05/10 07:14:01;;;;;;;5.90;2.80;;;23.00;95.20;;;;;;4946965;28;20392;-51
2021/05/10 07:16:27;;;;;;;8.52;3.17;;;23.10;96.80;;;;;;4971333;28;20388;-50
2021/05/10 07:18:56;;;;;;;6.15;2.90;;;22.80;98.00;;;;;;4954870;28;20745;-50
2021/05/10 07:21:23;;;;;;;7.60;2.92;;;22.50;98.00;;;;;;4969812;28;20416;-51
2021/05/10 07:23:49;;;;;;;6.65;2.83;;;22.40;98.10;;;;;;4952245;28;20556;-50
2021/05/10 07:26:15;;;;;;;6.15;3.17;;;23.00;98.10;;;;;;4965412;28;20400;-51
2021/05/10 07:28:40;;;;;;;6.60;2.95;;;24.10;97.30;;;;;;4971363;28;20418;-50
2021/05/10 07:31:06;;;;;;;7.68;3.10;;;24.90;95.50;;;;;;4962606;28;20406;-58
2021/05/10 07:33:32;;;;;;;7.53;2.50;;;25.40;93.10;;;;;;4960758;28;20421;-50
2021/05/10 07:35:57;;;;;;;9.05;2.90;;;25.40;92.30;;;;;;4951887;29;20386;-51
2021/05/10 07:38:23;;;;;;;7.57;2.78;;;25.20;92.20;;;;;;4951560;29;20389;-51
2021/05/10 07:40:49;;;;;;;8.50;2.75;;;25.30;92.10;;;;;;4952173;29;20932;-51
2021/05/10 07:43:15;;;;;;;9.67;2.77;;;25.00;91.50;;;;;;4951934;29;20404;-51
2021/05/10 07:45:40;;;;;;;7.70;2.90;;;24.60;92.30;;;;;;4968177;28;20400;-52
2021/05/10 07:48:06;;;;;;;7.50;2.63;;;25.80;90.90;;;;;;4971101;28;20384;-64
2021/05/10 07:50:32;;;;;;;9.60;2.53;;;26.90;87.00;;;;;;4971657;28;20403;-50
2021/05/10 07:52:58;;;;;;;7.30;2.80;;;26.90;86.50;;;;;;4970272;28;20407;-51
2021/05/10 07:55:25;;;;;;;9.70;3.10;;;26.20;86.00;;;;;;4970713;28;20376;-51
2021/05/10 07:57:53;;;;;;;6.30;2.40;;;25.40;88.60;;;;;;4971070;28;20748;-51
2021/05/10 08:00:29;;;;;;;8.90;2.60;;;25.20;90.10;;;;;;4970298;28;20402;-53
2021/05/10 08:02:59;;;;;;;6.80;2.60;;;25.00;90.70;;;;;;4971220;28;20987;-50
2021/05/10 08:05:24;;;;;;;7.53;2.38;;;25.30;90.20;;;;;;4970189;28;20447;-50
2021/05/10 08:07:50;;;;;;;5.50;2.30;;;25.40;89.80;;;;;;4971227;28;20388;-50
2021/05/10 08:10:16;;;;;;;9.57;2.80;;;24.60;89.90;;;;;;4945162;28;20393;-50
2021/05/10 08:12:42;;;;;;;7.60;2.20;;;25.40;90.40;;;;;;4965253;28;20419;-51
2021/05/10 08:15:08;;;;;;;6.30;2.25;;;26.30;84.90;;;;;;4967156;28;20404;-60
2021/05/10 08:17:35;;;;;;;9.00;2.33;;;25.80;86.20;;;;;;4951844;29;20394;-52
2021/05/10 08:20:04;;;;;;;5.43;2.22;;;26.40;86.70;;;;;;4956462;28;20485;-52
2021/05/10 08:22:29;;;;;;;6.28;2.40;;;27.70;81.00;;;;;;4955204;28;20424;-51
2021/05/10 08:24:55;;;;;;;6.60;2.20;;;28.70;75.70;;;;;;4970730;28;20415;-51
2021/05/10 08:27:21;;;;;;;7.00;2.03;;;27.90;76.00;;;;;;4969257;28;20921;-58
2021/05/10 08:29:47;;;;;;;8.70;2.85;;;27.00;76.50;;;;;;4970319;28;20955;-50
2021/05/10 08:32:12;;;;;;;5.95;2.70;;;25.80;81.30;;;;;;4969948;28;20429;-51
2021/05/10 08:34:38;;;;;;;6.60;2.87;;;25.00;85.90;;;;;;4969883;28;20400;-51
2021/05/10 08:37:04;;;;;;;5.90;2.37;;;24.40;87.70;;;;;;4970179;28;20399;-63
2021/05/10 08:39:29;;;;;;;6.40;2.63;;;23.90;89.20;;;;;;4954684;28;20467;-53
2021/05/10 08:41:55;;;;;;;6.60;2.50;;;23.60;90.90;;;;;;4951513;29;20410;-50
2021/05/10 08:44:22;;;;;;;7.65;2.90;;;23.20;92.00;;;;;;4950694;29;20444;-52
2021/05/10 08:46:47;;;;;;;8.23;2.80;;;23.10;93.00;;;;;;4951001;29;21166;-56
2021/05/10 08:49:18;;;;;;;6.28;2.67;;;22.80;93.70;;;;;;4950939;29;20422;-50
2021/05/10 08:51:44;;;;;;;8.30;2.33;;;22.30;95.20;;;;;;4951230;29;20405;-52
2021/05/10 08:54:25;;;;;;;6.20;2.72;;;21.70;96.30;;;;;;4950667;29;20783;-51
2021/05/10 08:56:56;;;;;;;8.00;2.80;;;21.30;98.10;;;;;;4951129;29;20949;-55
2021/05/10 08:59:23;;;;;;;8.93;2.70;;;21.30;98.90;;;;;;4950358;29;20453;-51
2021/05/10 09:01:52;;;;;;;7.97;2.75;;;21.50;99.10;;;;;;4965767;28;20420;-51
2021/05/10 09:04:26;;;;;;;7.03;2.60;;;22.10;99.40;;;;;;4969621;28;20894;-51
2021/05/10 09:07:13;;;;;;;8.18;2.58;;;23.10;97.50;;;;;;4970380;28;20384;-51
2021/05/10 09:10:08;;;;;;;5.20;2.30;;;24.30;94.00;;;;;;4970464;28;20385;-58
2021/05/10 09:12:46;;;;;;;6.00;2.40;;;23.10;94.60;;;;;;4970332;28;20388;-51
2021/05/10 09:15:30;;;;;;;6.68;2.28;;;22.70;95.80;;;;;;4970376;28;20780;-51
2021/05/10 09:18:04;;;;;;;6.78;2.20;;;22.60;97.10;;;;;;4974453;28;20380;-54
2021/05/10 09:20:35;;;;;;;5.38;2.17;;;22.10;96.70;;;;;;4973878;28;20392;-52
2021/05/10 09:23:03;;;;;;;6.13;2.00;;;22.30;96.60;;;;;;4956438;28;20860;-51
2021/05/10 09:25:29;;;;;;;7.10;2.20;;;22.30;96.70;;;;;;4973163;28;20426;-51
2021/05/10 09:28:16;;;;;;;6.50;1.80;;;22.30;96.50;;;;;;4965656;28;20447;-48
2021/05/10 09:30:47;;;;;;;5.28;1.80;;;22.50;95.30;;;;;;4973861;28;20721;-49
2021/05/10 09:33:25;;;;;;;5.80;1.50;;;22.50;95.90;;;;;;4973326;28;20957;-50
2021/05/10 09:35:52;;;;;;;4.43;1.40;;;22.20;96.40;;;;;;4974298;28;20411;-49
2021/05/10 09:38:19;;;;;;;5.32;1.40;;;22.50;95.90;;;;;;4972645;28;20380;-49
2021/05/10 09:40:47;;;;;;;8.20;1.40;;;23.40;95.10;;;;;;4973937;28;20467;-50
2021/05/10 09:43:16;;;;;;;5.60;1.40;;;23.90;92.10;;;;;;4973042;28;20395;-49
2021/05/10 09:45:51;;;;;;;4.50;1.50;;;23.70;91.50;;;;;;4973771;28;20388;-48
2021/05/10 09:48:21;;;;;;;4.88;1.40;;;24.10;91.10;;;;;;4973119;28;20388;-52
2021/05/10 09:50:49;;;;;;;5.00;1.15;;;24.10;91.30;;;;;;4974200;28;20424;-50
2021/05/10 09:53:38;;;;;;;4.25;1.30;;;23.90;91.20;;;;;;4972637;28;20384;-48
2021/05/10 09:56:07;;;;;;;4.32;1.02;;;23.60;92.30;;;;;;4973802;28;20419;-49
2021/05/10 09:58:52;;;;;;;4.68;1.38;;;24.00;91.50;;;;;;4973371;28;20392;-48
2021/05/10 10:01:18;;;;;;;4.45;1.30;;;23.90;91.00;;;;;;4954692;28;20656;-49
2021/05/10 10:03:58;;;;;;;3.87;1.07;;;23.80;90.80;;;;;;4965745;28;20409;-49
2021/05/10 10:06:28;;;;;;;3.92;1.17;;;23.80;91.40;;;;;;4954141;29;20393;-49
2021/05/10 10:08:55;;;;;;;4.50;1.00;;;23.70;90.70;;;;;;4954041;29;20386;-49
2021/05/10 10:11:24;;;;;;;4.60;1.00;;;23.40;90.80;;;;;;4964854;28;20397;-48
2021/05/10 10:13:55;;;;;;;6.07;1.60;;;22.80;92.80;;;;;;4958045;28;20399;-51
2021/05/10 10:16:27;;;;;;;5.63;1.10;;;22.70;93.70;;;;;;4971917;28;20396;-51
2021/05/10 10:18:55;;;;;;;4.55;1.10;;;22.80;93.30;;;;;;4972743;28;20892;-51
2021/05/10 10:21:22;;;;;;;3.60;0.97;;;22.30;93.30;;;;;;4972156;28;20419;-55
2021/05/10 10:23:58;;;;;;;4.00;1.20;;;22.30;94.30;;;;;;4973152;28;20392;-51
2021/05/10 10:26:26;;;;;;;5.90;1.50;;;22.50;94.70;;;;;;4970859;28;20401;-49
2021/05/10 10:28:52;;;;;;;4.30;1.30;;;22.80;93.60;;;;;;4972530;28;20469;-49
2021/05/10 10:31:30;;;;;;;5.32;1.10;;;22.50;94.00;;;;;;4955844;28;20398;-51
2021/05/10 10:34:04;;;;;;;4.80;1.20;;;22.10;94.60;;;;;;4961241;28;20479;-50
2021/05/10 10:36:32;;;;;;;4.75;1.30;;;22.10;94.50;;;;;;4972271;28;20693;-57
2021/05/10 10:39:22;;;;;;;4.28;1.10;;;22.20;94.80;;;;;;4972679;28;20407;-50
2021/05/10 10:42:19;;;;;;;6.10;1.17;;;21.90;95.60;;;;;;4972594;28;20416;-50
2021/05/10 10:44:54;;;;;;;4.70;1.27;;;21.80;96.00;;;;;;4961456;28;20401;-53
2021/05/10 10:47:45;;;;;;;5.20;1.30;;;21.40;96.90;;;;;;4971438;28;20443;-50
2021/05/10 10:50:23;;;;;;;4.65;1.30;;;21.50;97.40;;;;;;4972191;28;20451;-60
2021/05/10 10:52:49;;;;;;;3.90;1.10;;;21.60;98.40;;;;;;4972826;28;20384;-50
2021/05/10 10:55:21;;;;;;;6.00;1.60;;;21.80;97.30;;;;;;4971933;28;20899;-50
2021/05/10 10:57:47;;;;;;;5.00;1.27;;;22.00;96.20;;;;;;4971647;28;20460;-50
2021/05/10 11:00:16;;;;;;;4.00;1.30;;;22.00;95.80;;;;;;4970949;28;20447;-54
2021/05/10 11:02:51;;;;;;;4.32;1.20;;;22.10;95.50;;;;;;4971938;28;20475;-50
2021/05/10 11:05:17;;;;;;;4.60;1.10;;;22.00;95.90;;;;;;4971752;28;20400;-49
2021/05/10 11:07:50;;;;;;;5.40;1.20;;;22.10;95.50;;;;;;4971949;28;20396;-51
2021/05/10 11:10:50;;;;;;;5.13;1.23;;;21.90;95.80;;;;;;4971348;28;20393;-49
2021/05/10 11:13:28;;;;;;;4.85;1.13;;;22.10;95.60;;;;;;4971599;28;20392;-50
2021/05/10 11:15:56;;;;;;;7.38;1.10;;;22.20;94.60;;;;;;4972228;28;20842;-49
2021/05/10 11:18:35;;;;;;;5.30;0.90;;;21.90;94.30;;;;;;4971245;28;20384;-50
2021/05/10 11:21:03;;;;;;;5.63;0.90;;;21.80;94.80;;;;;;4972351;28;20416;-49
2021/05/10 11:23:33;;;;;;;4.80;1.00;;;21.80;95.30;;;;;;4971496;28;20388;-49
2021/05/10 11:26:02;;;;;;;4.90;1.10;;;21.60;94.40;;;;;;4971789;28;20755;-49
2021/05/10 11:28:28;;;;;;;3.80;1.10;;;21.40;95.10;;;;;;4970680;28;20772;-49
2021/05/10 11:31:04;;;;;;;3.70;0.60;;;21.00;95.50;;;;;;4954109;28;20771;-49
2021/05/10 11:33:54;;;;;;;3.80;0.80;;;20.90;95.80;;;;;;4971035;28;20427;-49
2021/05/10 11:36:27;;;;;;;4.88;0.80;;;20.80;96.10;;;;;;4970125;28;20535;-53
2021/05/10 11:38:55;;;;;;;5.10;1.15;;;20.70;96.30;;;;;;4971447;28;20395;-49
2021/05/10 11:41:42;;;;;;;3.80;0.90;;;20.50;96.70;;;;;;4971103;28;20906;-49
2021/05/10 11:44:26;;;;;;;3.63;1.00;;;20.60;97.00;;;;;;4971523;28;20466;-55
2021/05/10 11:46:54;;;;;;;5.55;1.30;;;20.60;96.80;;;;;;4971697;28;20501;-51
2021/05/10 11:49:38;;;;;;;5.40;0.90;;;20.60;96.90;;;;;;4971163;28;20465;-53
2021/05/10 11:52:14;;;;;;;3.60;0.70;;;20.40;96.30;;;;;;4971468;28;20392;-53
2021/05/10 11:54:42;;;;;;;3.30;0.70;;;20.30;96.70;;;;;;4971693;28;20467;-52
2021/05/10 11:57:09;;;;;;;7.05;0.80;;;20.50;96.10;;;;;;4971596;28;20471;-51
2021/05/10 12:02:12;;;;;;;3.70;0.70;;;20.20;96.40;;;;;;4959768;28;20480;-52
2021/05/10 12:04:40;;;;;;;4.10;0.60;;;20.10;96.60;;;;;;4952151;29;20850;-52
2021/05/10 12:07:06;;;;;;;3.70;0.60;;;20.20;95.30;;;;;;4952259;29;20436;-52
2021/05/10 12:09:38;;;;;;;4.70;0.50;;;20.00;95.30;;;;;;4951740;29;20477;-53
2021/05/10 12:12:27;;;;;;;3.40;0.60;;;19.90;95.40;;;;;;4951543;29;20807;-51
2021/05/10 12:14:55;;;;;;;3.30;0.50;;;20.00;95.60;;;;;;4952180;29;20412;-52
2021/05/10 12:17:26;;;;;;;3.60;0.57;;;20.00;96.20;;;;;;4951187;29;20707;-52
2021/05/10 12:20:12;;;;;;;4.30;0.68;;;20.00;96.10;;;;;;4951901;29;20473;-52
2021/05/10 12:22:57;;;;;;;3.80;0.70;;;20.10;96.70;;;;;;4934340;29;20429;-53
2021/05/10 12:25:31;;;;;;;5.70;0.70;;;20.30;95.40;;;;;;4951203;29;20404;-52
2021/05/10 12:28:12;;;;;;;4.20;0.50;;;20.10;94.90;;;;;;4951539;29;20528;-51
2021/05/10 12:30:44;;;;;;;3.40;0.40;;;19.80;95.20;;;;;;4951415;29;20402;-54
2021/05/10 12:33:12;;;;;;;3.97;0.50;;;19.80;95.50;;;;;;4951540;29;20405;-63
2021/05/10 12:35:43;;;;;;;4.93;3.00;;;19.80;95.90;;;;;;4951754;29;20960;-52
2021/05/10 12:38:10;;;;;;;4.50;0.70;;;19.90;95.60;;;;;;4951380;29;20449;-60
2021/05/10 12:40:41;;;;;;;4.35;0.60;;;20.20;94.90;;;;;;4951037;29;20520;-49
2021/05/10 12:43:14;;;;;;;3.75;0.70;;;20.20;95.10;;;;;;4951595;29;20420;-49
2021/05/10 12:45:43;;;;;;;3.30;0.50;;;20.50;95.40;;;;;;4951720;29;20386;-49
2021/05/10 12:48:22;;;;;;;3.40;0.50;;;20.80;95.00;;;;;;4950619;28;20401;-50
2021/05/10 12:50:52;;;;;;;4.95;0.55;;;20.90;94.50;;;;;;4951862;29;20393;-49
2021/05/10 12:53:31;;;;;;;4.40;0.60;;;20.80;95.10;;;;;;4950667;29;20473;-49
2021/05/10 12:56:04;;;;;;;4.30;0.70;;;20.80;93.80;;;;;;4951741;29;20394;-51
2021/05/10 12:58:42;;;;;;;3.50;0.60;;;20.80;93.70;;;;;;4950471;29;20401;-49
2021/05/10 13:01:25;;;;;;;4.30;0.80;;;20.90;94.00;;;;;;4954472;28;20428;-49
2021/05/10 13:04:05;;;;;;;5.10;0.63;;;21.20;93.80;;;;;;4970291;28;20438;-49